sensor_id;sensor_type;location;lat;lon;timestamp;P1;durP1;ratioP1;P2;durP2;ratioP2
28958;SDS011;16066;0.000;0.000;2022-09-01T00:01:19;3.53;;;2.00;;
28958;SDS011;16066;0.000;0.000;2022-09-01T00:03:49;3.37;;;2.27;;
28958;SDS011;16066;0.000;0.000;2022-09-01T00:06:17;3.30;;;2.43;;
28958;SDS011;16066;0.000;0.000;2022-09-01T00:08:50;5.47;;;2.40;;
28958;SDS011;16066;0.000;0.000;2022-09-01T00:11:16;2.60;;;2.00;;
28958;SDS011;16066;0.000;0.000;2022-09-01T00:13:42;3.50;;;2.33;;
28958;SDS011;16066;0.000;0.000;2022-09-01T00:16:08;4.57;;;2.73;;
28958;SDS011;16066;0.000;0.000;2022-09-01T00:18:37;4.60;;;2.40;;
28958;SDS011;16066;0.000;0.000;2022-09-01T00:21:08;2.23;;;2.03;;
28958;SDS011;16066;0.000;0.000;2022-09-01T00:23:34;3.00;;;2.30;;
28958;SDS011;16066;0.000;0.000;2022-09-01T00:26:00;2.57;;;2.00;;
28958;SDS011;16066;0.000;0.000;2022-09-01T00:28:26;4.90;;;2.60;;
28958;SDS011;16066;0.000;0.000;2022-09-01T00:30:51;4.70;;;2.50;;
28958;SDS011;16066;0.000;0.000;2022-09-01T00:33:17;5.20;;;2.27;;
28958;SDS011;16066;0.000;0.000;2022-09-01T00:35:43;2.67;;;1.77;;
28958;SDS011;16066;0.000;0.000;2022-09-01T00:38:08;2.57;;;2.00;;
28958;SDS011;16066;0.000;0.000;2022-09-01T00:40:34;4.43;;;2.33;;
28958;SDS011;16066;0.000;0.000;2022-09-01T00:43:00;2.40;;;2.20;;
28958;SDS011;16066;0.000;0.000;2022-09-01T00:45:34;4.13;;;2.40;;
28958;SDS011;16066;0.000;0.000;2022-09-01T00:48:00;4.00;;;2.10;;
28958;SDS011;16066;0.000;0.000;2022-09-01T00:50:29;3.57;;;2.17;;
28958;SDS011;16066;0.000;0.000;2022-09-01T00:52:56;3.37;;;2.40;;
28958;SDS011;16066;0.000;0.000;2022-09-01T00:55:23;3.10;;;2.23;;
28958;SDS011;16066;0.000;0.000;2022-09-01T00:57:52;3.57;;;2.33;;
28958;SDS011;16066;0.000;0.000;2022-09-01T01:00:22;5.40;;;2.37;;
28958;SDS011;16066;0.000;0.000;2022-09-01T01:02:50;2.80;;;2.33;;
28958;SDS011;16066;0.000;0.000;2022-09-01T01:05:20;4.20;;;2.30;;
28958;SDS011;16066;0.000;0.000;2022-09-01T01:07:47;4.40;;;2.30;;
28958;SDS011;16066;0.000;0.000;2022-09-01T01:10:14;3.17;;;2.00;;
28958;SDS011;16066;0.000;0.000;2022-09-01T01:12:41;4.90;;;2.00;;
28958;SDS011;16066;0.000;0.000;2022-09-01T01:15:08;2.77;;;2.23;;
28958;SDS011;16066;0.000;0.000;2022-09-01T01:17:35;2.50;;;1.90;;
28958;SDS011;16066;0.000;0.000;2022-09-01T01:20:01;4.13;;;2.43;;
28958;SDS011;16066;0.000;0.000;2022-09-01T01:23:05;6.40;;;2.10;;
28958;SDS011;16066;0.000;0.000;2022-09-01T01:28:11;2.10;;;1.90;;
28958;SDS011;16066;0.000;0.000;2022-09-01T01:30:41;2.50;;;2.17;;
28958;SDS011;16066;0.000;0.000;2022-09-01T01:33:08;4.17;;;2.20;;
28958;SDS011;16066;0.000;0.000;2022-09-01T01:35:35;5.00;;;2.40;;
28958;SDS011;16066;0.000;0.000;2022-09-01T01:38:01;2.73;;;1.93;;
28958;SDS011;16066;0.000;0.000;2022-09-01T01:40:31;3.40;;;2.00;;
28958;SDS011;16066;0.000;0.000;2022-09-01T01:42:57;6.40;;;2.17;;
28958;SDS011;16066;0.000;0.000;2022-09-01T01:45:24;3.13;;;2.10;;
28958;SDS011;16066;0.000;0.000;2022-09-01T01:47:51;4.03;;;2.10;;
28958;SDS011;16066;0.000;0.000;2022-09-01T01:50:25;4.33;;;2.40;;
28958;SDS011;16066;0.000;0.000;2022-09-01T01:52:53;4.37;;;2.27;;
28958;SDS011;16066;0.000;0.000;2022-09-01T01:55:21;4.43;;;2.00;;
28958;SDS011;16066;0.000;0.000;2022-09-01T01:57:47;3.80;;;2.40;;
28958;SDS011;16066;0.000;0.000;2022-09-01T02:00:14;2.70;;;2.10;;
28958;SDS011;16066;0.000;0.000;2022-09-01T02:02:43;6.90;;;2.27;;
28958;SDS011;16066;0.000;0.000;2022-09-01T02:05:16;3.00;;;2.03;;
28958;SDS011;16066;0.000;0.000;2022-09-01T02:07:48;3.90;;;2.30;;
28958;SDS011;16066;0.000;0.000;2022-09-01T02:10:42;4.40;;;2.20;;
28958;SDS011;16066;0.000;0.000;2022-09-01T02:13:10;4.73;;;2.63;;
28958;SDS011;16066;0.000;0.000;2022-09-01T02:15:41;2.90;;;2.50;;
28958;SDS011;16066;0.000;0.000;2022-09-01T02:18:32;4.17;;;2.67;;
28958;SDS011;16066;0.000;0.000;2022-09-01T02:20:59;4.07;;;2.30;;
28958;SDS011;16066;0.000;0.000;2022-09-01T02:23:26;4.17;;;2.30;;
28958;SDS011;16066;0.000;0.000;2022-09-01T02:25:56;4.63;;;2.20;;
28958;SDS011;16066;0.000;0.000;2022-09-01T02:28:27;4.27;;;2.30;;
28958;SDS011;16066;0.000;0.000;2022-09-01T02:30:56;3.70;;;2.50;;
28958;SDS011;16066;0.000;0.000;2022-09-01T02:33:24;3.90;;;2.40;;
28958;SDS011;16066;0.000;0.000;2022-09-01T02:35:52;4.10;;;2.50;;
28958;SDS011;16066;0.000;0.000;2022-09-01T02:38:20;3.43;;;2.70;;
28958;SDS011;16066;0.000;0.000;2022-09-01T02:40:50;2.87;;;2.27;;
28958;SDS011;16066;0.000;0.000;2022-09-01T02:43:17;4.23;;;2.57;;
28958;SDS011;16066;0.000;0.000;2022-09-01T02:45:45;4.03;;;2.30;;
28958;SDS011;16066;0.000;0.000;2022-09-01T02:48:12;4.13;;;2.47;;
28958;SDS011;16066;0.000;0.000;2022-09-01T02:50:38;4.30;;;2.50;;
28958;SDS011;16066;0.000;0.000;2022-09-01T02:53:06;4.53;;;2.50;;
28958;SDS011;16066;0.000;0.000;2022-09-01T02:55:36;3.90;;;2.50;;
28958;SDS011;16066;0.000;0.000;2022-09-01T02:58:02;2.37;;;2.17;;
28958;SDS011;16066;0.000;0.000;2022-09-01T03:00:28;4.93;;;2.53;;
28958;SDS011;16066;0.000;0.000;2022-09-01T03:02:56;8.07;;;2.77;;
28958;SDS011;16066;0.000;0.000;2022-09-01T03:05:25;3.77;;;2.10;;
28958;SDS011;16066;0.000;0.000;2022-09-01T03:07:55;4.20;;;2.73;;
28958;SDS011;16066;0.000;0.000;2022-09-01T03:10:24;3.70;;;2.37;;
28958;SDS011;16066;0.000;0.000;2022-09-01T03:13:00;4.10;;;2.20;;
28958;SDS011;16066;0.000;0.000;2022-09-01T03:15:30;3.07;;;2.50;;
28958;SDS011;16066;0.000;0.000;2022-09-01T03:17:58;3.87;;;2.23;;
28958;SDS011;16066;0.000;0.000;2022-09-01T03:20:25;3.57;;;2.27;;
28958;SDS011;16066;0.000;0.000;2022-09-01T03:22:55;3.70;;;2.30;;
28958;SDS011;16066;0.000;0.000;2022-09-01T03:25:22;2.40;;;2.20;;
28958;SDS011;16066;0.000;0.000;2022-09-01T03:27:49;2.90;;;2.07;;
28958;SDS011;16066;0.000;0.000;2022-09-01T03:30:15;3.83;;;2.40;;
28958;SDS011;16066;0.000;0.000;2022-09-01T03:32:41;2.77;;;2.03;;
28958;SDS011;16066;0.000;0.000;2022-09-01T03:35:09;4.77;;;2.07;;
28958;SDS011;16066;0.000;0.000;2022-09-01T03:37:36;4.23;;;2.20;;
28958;SDS011;16066;0.000;0.000;2022-09-01T03:40:04;2.43;;;1.93;;
28958;SDS011;16066;0.000;0.000;2022-09-01T03:42:32;2.67;;;1.70;;
28958;SDS011;16066;0.000;0.000;2022-09-01T03:44:59;1.93;;;1.57;;
28958;SDS011;16066;0.000;0.000;2022-09-01T03:47:27;3.47;;;2.20;;
28958;SDS011;16066;0.000;0.000;2022-09-01T03:49:53;7.47;;;2.80;;
28958;SDS011;16066;0.000;0.000;2022-09-01T03:52:18;2.80;;;2.50;;
28958;SDS011;16066;0.000;0.000;2022-09-01T03:54:45;5.20;;;2.27;;
28958;SDS011;16066;0.000;0.000;2022-09-01T03:57:10;3.73;;;2.73;;
28958;SDS011;16066;0.000;0.000;2022-09-01T03:59:36;4.47;;;1.97;;
28958;SDS011;16066;0.000;0.000;2022-09-01T04:02:07;3.10;;;2.20;;
28958;SDS011;16066;0.000;0.000;2022-09-01T04:04:32;2.63;;;2.43;;
28958;SDS011;16066;0.000;0.000;2022-09-01T04:06:58;3.10;;;2.50;;
28958;SDS011;16066;0.000;0.000;2022-09-01T04:09:24;3.87;;;2.23;;
28958;SDS011;16066;0.000;0.000;2022-09-01T04:11:50;3.23;;;2.40;;
28958;SDS011;16066;0.000;0.000;2022-09-01T04:14:17;3.03;;;2.07;;
28958;SDS011;16066;0.000;0.000;2022-09-01T04:16:43;5.40;;;2.60;;
28958;SDS011;16066;0.000;0.000;2022-09-01T04:19:27;2.77;;;2.27;;
28958;SDS011;16066;0.000;0.000;2022-09-01T04:21:55;4.10;;;2.70;;
28958;SDS011;16066;0.000;0.000;2022-09-01T04:24:26;3.47;;;2.10;;
28958;SDS011;16066;0.000;0.000;2022-09-01T04:26:54;5.07;;;2.63;;
28958;SDS011;16066;0.000;0.000;2022-09-01T04:29:22;2.80;;;2.23;;
28958;SDS011;16066;0.000;0.000;2022-09-01T04:31:51;4.43;;;2.07;;
28958;SDS011;16066;0.000;0.000;2022-09-01T04:34:21;2.80;;;2.33;;
28958;SDS011;16066;0.000;0.000;2022-09-01T04:36:48;3.10;;;2.00;;
28958;SDS011;16066;0.000;0.000;2022-09-01T04:39:17;2.70;;;2.20;;
28958;SDS011;16066;0.000;0.000;2022-09-01T04:41:43;5.97;;;2.73;;
28958;SDS011;16066;0.000;0.000;2022-09-01T04:44:13;3.10;;;2.40;;
28958;SDS011;16066;0.000;0.000;2022-09-01T04:46:43;4.47;;;2.37;;
28958;SDS011;16066;0.000;0.000;2022-09-01T04:49:14;5.80;;;2.53;;
28958;SDS011;16066;0.000;0.000;2022-09-01T04:51:47;3.50;;;2.50;;
28958;SDS011;16066;0.000;0.000;2022-09-01T04:54:15;8.23;;;2.50;;
28958;SDS011;16066;0.000;0.000;2022-09-01T04:56:41;3.40;;;2.30;;
28958;SDS011;16066;0.000;0.000;2022-09-01T04:59:09;6.10;;;2.57;;
28958;SDS011;16066;0.000;0.000;2022-09-01T05:01:36;5.43;;;2.33;;
28958;SDS011;16066;0.000;0.000;2022-09-01T05:04:10;5.83;;;2.77;;
28958;SDS011;16066;0.000;0.000;2022-09-01T05:06:44;5.67;;;2.23;;
28958;SDS011;16066;0.000;0.000;2022-09-01T05:09:13;6.13;;;2.73;;
28958;SDS011;16066;0.000;0.000;2022-09-01T05:11:41;3.37;;;2.10;;
28958;SDS011;16066;0.000;0.000;2022-09-01T05:14:09;8.03;;;2.60;;
28958;SDS011;16066;0.000;0.000;2022-09-01T05:16:36;3.20;;;2.53;;
28958;SDS011;16066;0.000;0.000;2022-09-01T05:19:05;8.23;;;2.50;;
28958;SDS011;16066;0.000;0.000;2022-09-01T05:21:31;3.80;;;2.43;;
28958;SDS011;16066;0.000;0.000;2022-09-01T05:23:58;4.20;;;2.63;;
28958;SDS011;16066;0.000;0.000;2022-09-01T05:26:29;6.17;;;2.67;;
28958;SDS011;16066;0.000;0.000;2022-09-01T05:28:58;3.70;;;2.50;;
28958;SDS011;16066;0.000;0.000;2022-09-01T05:31:26;6.40;;;2.33;;
28958;SDS011;16066;0.000;0.000;2022-09-01T05:33:58;13.43;;;2.33;;
28958;SDS011;16066;0.000;0.000;2022-09-01T05:36:25;4.30;;;2.40;;
28958;SDS011;16066;0.000;0.000;2022-09-01T05:38:55;3.40;;;2.37;;
28958;SDS011;16066;0.000;0.000;2022-09-01T05:41:21;3.23;;;2.30;;
28958;SDS011;16066;0.000;0.000;2022-09-01T05:43:48;5.30;;;2.80;;
28958;SDS011;16066;0.000;0.000;2022-09-01T05:46:17;8.03;;;2.37;;
28958;SDS011;16066;0.000;0.000;2022-09-01T05:48:48;3.10;;;2.40;;
28958;SDS011;16066;0.000;0.000;2022-09-01T05:51:16;5.90;;;2.40;;
28958;SDS011;16066;0.000;0.000;2022-09-01T05:53:46;11.60;;;2.73;;
28958;SDS011;16066;0.000;0.000;2022-09-01T05:56:15;4.43;;;2.23;;
28958;SDS011;16066;0.000;0.000;2022-09-01T05:58:41;4.00;;;2.40;;
28958;SDS011;16066;0.000;0.000;2022-09-01T06:01:09;3.10;;;2.23;;
28958;SDS011;16066;0.000;0.000;2022-09-01T06:03:40;7.80;;;2.80;;
28958;SDS011;16066;0.000;0.000;2022-09-01T06:06:08;3.53;;;2.70;;
28958;SDS011;16066;0.000;0.000;2022-09-01T06:08:36;4.27;;;2.43;;
28958;SDS011;16066;0.000;0.000;2022-09-01T06:11:02;4.13;;;2.90;;
28958;SDS011;16066;0.000;0.000;2022-09-01T06:13:36;6.00;;;2.80;;
28958;SDS011;16066;0.000;0.000;2022-09-01T06:16:04;5.80;;;2.40;;
28958;SDS011;16066;0.000;0.000;2022-09-01T06:18:29;7.37;;;2.90;;
28958;SDS011;16066;0.000;0.000;2022-09-01T06:20:58;10.27;;;3.13;;
28958;SDS011;16066;0.000;0.000;2022-09-01T06:23:23;6.60;;;2.40;;
28958;SDS011;16066;0.000;0.000;2022-09-01T06:25:49;4.83;;;2.90;;
28958;SDS011;16066;0.000;0.000;2022-09-01T06:28:16;5.03;;;2.30;;
28958;SDS011;16066;0.000;0.000;2022-09-01T06:30:45;6.70;;;3.10;;
28958;SDS011;16066;0.000;0.000;2022-09-01T06:33:13;9.27;;;2.20;;
28958;SDS011;16066;0.000;0.000;2022-09-01T06:35:39;3.57;;;2.47;;
28958;SDS011;16066;0.000;0.000;2022-09-01T06:38:09;6.60;;;4.00;;
28958;SDS011;16066;0.000;0.000;2022-09-01T06:40:35;4.97;;;2.50;;
28958;SDS011;16066;0.000;0.000;2022-09-01T06:43:05;4.63;;;2.50;;
28958;SDS011;16066;0.000;0.000;2022-09-01T06:45:32;6.80;;;3.40;;
28958;SDS011;16066;0.000;0.000;2022-09-01T06:47:59;11.10;;;3.40;;
28958;SDS011;16066;0.000;0.000;2022-09-01T06:50:25;13.87;;;3.03;;
28958;SDS011;16066;0.000;0.000;2022-09-01T06:52:52;5.37;;;2.60;;
28958;SDS011;16066;0.000;0.000;2022-09-01T06:55:25;7.50;;;2.67;;
28958;SDS011;16066;0.000;0.000;2022-09-01T06:57:57;6.57;;;2.93;;
28958;SDS011;16066;0.000;0.000;2022-09-01T07:00:23;10.50;;;2.53;;
28958;SDS011;16066;0.000;0.000;2022-09-01T07:02:54;4.17;;;2.43;;
28958;SDS011;16066;0.000;0.000;2022-09-01T07:05:22;4.97;;;2.00;;
28958;SDS011;16066;0.000;0.000;2022-09-01T07:07:49;3.77;;;2.30;;
28958;SDS011;16066;0.000;0.000;2022-09-01T07:10:18;6.03;;;2.20;;
28958;SDS011;16066;0.000;0.000;2022-09-01T07:12:46;3.40;;;1.90;;
28958;SDS011;16066;0.000;0.000;2022-09-01T07:15:13;3.63;;;2.17;;
28958;SDS011;16066;0.000;0.000;2022-09-01T07:17:40;7.50;;;2.50;;
28958;SDS011;16066;0.000;0.000;2022-09-01T07:20:06;5.33;;;2.50;;
28958;SDS011;16066;0.000;0.000;2022-09-01T07:22:33;5.50;;;2.10;;
28958;SDS011;16066;0.000;0.000;2022-09-01T07:24:58;2.20;;;1.80;;
28958;SDS011;16066;0.000;0.000;2022-09-01T07:27:25;4.13;;;2.20;;
28958;SDS011;16066;0.000;0.000;2022-09-01T07:29:52;5.07;;;2.07;;
28958;SDS011;16066;0.000;0.000;2022-09-01T07:32:20;4.07;;;2.00;;
28958;SDS011;16066;0.000;0.000;2022-09-01T07:34:46;5.37;;;2.10;;
28958;SDS011;16066;0.000;0.000;2022-09-01T07:37:11;5.93;;;2.00;;
28958;SDS011;16066;0.000;0.000;2022-09-01T07:39:37;1.60;;;1.40;;
28958;SDS011;16066;0.000;0.000;2022-09-01T07:42:10;3.47;;;2.00;;
28958;SDS011;16066;0.000;0.000;2022-09-01T07:44:36;4.90;;;1.80;;
28958;SDS011;16066;0.000;0.000;2022-09-01T07:47:03;3.33;;;1.73;;
28958;SDS011;16066;0.000;0.000;2022-09-01T07:49:32;2.77;;;1.70;;
28958;SDS011;16066;0.000;0.000;2022-09-01T07:51:57;2.40;;;1.50;;
28958;SDS011;16066;0.000;0.000;2022-09-01T07:54:27;2.80;;;1.67;;
28958;SDS011;16066;0.000;0.000;2022-09-01T07:56:54;6.80;;;2.23;;
28958;SDS011;16066;0.000;0.000;2022-09-01T07:59:19;2.73;;;1.90;;
28958;SDS011;16066;0.000;0.000;2022-09-01T08:01:45;5.40;;;1.80;;
28958;SDS011;16066;0.000;0.000;2022-09-01T08:04:11;5.63;;;2.20;;
28958;SDS011;16066;0.000;0.000;2022-09-01T08:06:37;3.10;;;1.70;;
28958;SDS011;16066;0.000;0.000;2022-09-01T08:09:02;10.20;;;1.80;;
28958;SDS011;16066;0.000;0.000;2022-09-01T08:11:31;3.33;;;1.87;;
28958;SDS011;16066;0.000;0.000;2022-09-01T08:13:57;2.50;;;1.70;;
28958;SDS011;16066;0.000;0.000;2022-09-01T08:16:27;5.70;;;2.03;;
28958;SDS011;16066;0.000;0.000;2022-09-01T08:18:54;4.33;;;2.27;;
28958;SDS011;16066;0.000;0.000;2022-09-01T08:21:21;4.50;;;1.73;;
28958;SDS011;16066;0.000;0.000;2022-09-01T08:23:47;2.47;;;1.50;;
28958;SDS011;16066;0.000;0.000;2022-09-01T08:26:17;2.40;;;1.40;;
28958;SDS011;16066;0.000;0.000;2022-09-01T08:28:44;3.63;;;1.50;;
28958;SDS011;16066;0.000;0.000;2022-09-01T08:31:10;3.10;;;1.40;;
28958;SDS011;16066;0.000;0.000;2022-09-01T08:33:38;3.90;;;1.83;;
28958;SDS011;16066;0.000;0.000;2022-09-01T08:36:06;1.97;;;1.43;;
28958;SDS011;16066;0.000;0.000;2022-09-01T08:38:33;2.23;;;1.77;;
28958;SDS011;16066;0.000;0.000;2022-09-01T08:40:59;4.20;;;1.47;;
28958;SDS011;16066;0.000;0.000;2022-09-01T08:43:37;2.50;;;1.67;;
28958;SDS011;16066;0.000;0.000;2022-09-01T08:46:21;3.00;;;1.40;;
28958;SDS011;16066;0.000;0.000;2022-09-01T08:49:00;1.93;;;1.30;;
28958;SDS011;16066;0.000;0.000;2022-09-01T08:51:55;7.00;;;1.30;;
28958;SDS011;16066;0.000;0.000;2022-09-01T08:57:05;2.03;;;1.70;;
28958;SDS011;16066;0.000;0.000;2022-09-01T08:59:34;3.00;;;1.70;;
28958;SDS011;16066;0.000;0.000;2022-09-01T09:02:14;3.20;;;1.30;;
28958;SDS011;16066;0.000;0.000;2022-09-01T09:12:44;1.87;;;1.37;;
28958;SDS011;16066;0.000;0.000;2022-09-01T09:15:46;1.80;;;1.40;;
28958;SDS011;16066;0.000;0.000;2022-09-01T09:18:24;2.23;;;1.30;;
28958;SDS011;16066;0.000;0.000;2022-09-01T09:21:12;2.30;;;1.27;;
28958;SDS011;16066;0.000;0.000;2022-09-01T09:23:42;2.93;;;1.33;;
28958;SDS011;16066;0.000;0.000;2022-09-01T09:26:12;7.70;;;1.20;;
28958;SDS011;16066;0.000;0.000;2022-09-01T09:28:37;3.37;;;1.83;;
28958;SDS011;16066;0.000;0.000;2022-09-01T09:34:02;6.43;;;1.73;;
28958;SDS011;16066;0.000;0.000;2022-09-01T09:36:34;3.50;;;1.77;;
28958;SDS011;16066;0.000;0.000;2022-09-01T09:39:10;2.03;;;1.43;;
28958;SDS011;16066;0.000;0.000;2022-09-01T09:41:38;1.90;;;1.50;;
28958;SDS011;16066;0.000;0.000;2022-09-01T09:46:41;1.47;;;1.30;;
28958;SDS011;16066;0.000;0.000;2022-09-01T09:49:15;3.03;;;1.97;;
28958;SDS011;16066;0.000;0.000;2022-09-01T09:52:29;3.80;;;1.53;;
28958;SDS011;16066;0.000;0.000;2022-09-01T09:54:33;3.83;;;1.30;;
28958;SDS011;16066;0.000;0.000;2022-09-01T09:57:03;2.40;;;1.53;;
28958;SDS011;16066;0.000;0.000;2022-09-01T09:59:43;8.00;;;1.90;;
28958;SDS011;16066;0.000;0.000;2022-09-01T10:04:59;2.17;;;1.30;;
28958;SDS011;16066;0.000;0.000;2022-09-01T10:07:33;1.60;;;1.50;;
28958;SDS011;16066;0.000;0.000;2022-09-01T10:10:03;2.20;;;1.50;;
28958;SDS011;16066;0.000;0.000;2022-09-01T10:12:32;2.73;;;1.40;;
28958;SDS011;16066;0.000;0.000;2022-09-01T10:15:05;1.80;;;1.40;;
28958;SDS011;16066;0.000;0.000;2022-09-01T10:17:34;6.00;;;1.93;;
28958;SDS011;16066;0.000;0.000;2022-09-01T10:20:07;1.63;;;1.37;;
28958;SDS011;16066;0.000;0.000;2022-09-01T10:22:48;2.80;;;1.30;;
28958;SDS011;16066;0.000;0.000;2022-09-01T10:25:27;1.37;;;1.27;;
28958;SDS011;16066;0.000;0.000;2022-09-01T10:27:58;3.27;;;1.80;;
28958;SDS011;16066;0.000;0.000;2022-09-01T10:30:32;2.67;;;1.50;;
28958;SDS011;16066;0.000;0.000;2022-09-01T10:32:59;7.70;;;1.83;;
28958;SDS011;16066;0.000;0.000;2022-09-01T10:37:51;5.13;;;1.60;;
28958;SDS011;16066;0.000;0.000;2022-09-01T10:42:54;1.60;;;1.23;;
28958;SDS011;16066;0.000;0.000;2022-09-01T10:48:21;1.30;;;1.20;;
28958;SDS011;16066;0.000;0.000;2022-09-01T10:50:51;2.80;;;1.63;;
28958;SDS011;16066;0.000;0.000;2022-09-01T10:56:08;1.73;;;1.40;;
28958;SDS011;16066;0.000;0.000;2022-09-01T10:58:43;3.63;;;1.60;;
28958;SDS011;16066;0.000;0.000;2022-09-01T11:01:10;3.03;;;1.50;;
28958;SDS011;16066;0.000;0.000;2022-09-01T11:03:37;1.40;;;1.30;;
28958;SDS011;16066;0.000;0.000;2022-09-01T11:06:29;4.30;;;1.53;;
28958;SDS011;16066;0.000;0.000;2022-09-01T11:08:57;2.17;;;1.40;;
28958;SDS011;16066;0.000;0.000;2022-09-01T11:11:40;1.57;;;1.47;;
28958;SDS011;16066;0.000;0.000;2022-09-01T11:14:17;2.03;;;1.70;;
28958;SDS011;16066;0.000;0.000;2022-09-01T11:19:46;4.67;;;1.50;;
28958;SDS011;16066;0.000;0.000;2022-09-01T11:22:32;1.87;;;1.20;;
28958;SDS011;16066;0.000;0.000;2022-09-01T11:25:10;5.33;;;1.70;;
28958;SDS011;16066;0.000;0.000;2022-09-01T11:30:33;8.50;;;1.50;;
28958;SDS011;16066;0.000;0.000;2022-09-01T11:33:08;2.03;;;1.60;;
28958;SDS011;16066;0.000;0.000;2022-09-01T11:35:37;2.90;;;1.60;;
28958;SDS011;16066;0.000;0.000;2022-09-01T11:38:03;1.63;;;1.30;;
28958;SDS011;16066;0.000;0.000;2022-09-01T11:40:33;1.40;;;1.30;;
28958;SDS011;16066;0.000;0.000;2022-09-01T11:43:02;2.10;;;1.60;;
28958;SDS011;16066;0.000;0.000;2022-09-01T11:45:36;3.30;;;1.60;;
28958;SDS011;16066;0.000;0.000;2022-09-01T11:48:24;6.87;;;1.80;;
28958;SDS011;16066;0.000;0.000;2022-09-01T11:50:57;5.00;;;1.83;;
28958;SDS011;16066;0.000;0.000;2022-09-01T11:53:25;3.30;;;1.80;;
28958;SDS011;16066;0.000;0.000;2022-09-01T11:55:52;3.10;;;1.50;;
28958;SDS011;16066;0.000;0.000;2022-09-01T12:00:51;1.83;;;1.63;;
28958;SDS011;16066;0.000;0.000;2022-09-01T12:05:46;1.60;;;1.50;;
28958;SDS011;16066;0.000;0.000;2022-09-01T12:08:16;3.83;;;1.50;;
28958;SDS011;16066;0.000;0.000;2022-09-01T12:10:43;1.40;;;1.30;;
28958;SDS011;16066;0.000;0.000;2022-09-01T12:15:40;3.13;;;1.63;;
28958;SDS011;16066;0.000;0.000;2022-09-01T12:18:17;4.20;;;1.47;;
28958;SDS011;16066;0.000;0.000;2022-09-01T12:20:50;2.27;;;1.70;;
28958;SDS011;16066;0.000;0.000;2022-09-01T12:25:55;6.60;;;2.00;;
28958;SDS011;16066;0.000;0.000;2022-09-01T12:28:26;1.40;;;1.27;;
28958;SDS011;16066;0.000;0.000;2022-09-01T12:31:02;2.13;;;1.60;;
28958;SDS011;16066;0.000;0.000;2022-09-01T12:33:30;1.80;;;1.50;;
28958;SDS011;16066;0.000;0.000;2022-09-01T12:36:12;2.83;;;1.40;;
28958;SDS011;16066;0.000;0.000;2022-09-01T12:38:47;2.03;;;1.60;;
28958;SDS011;16066;0.000;0.000;2022-09-01T12:41:30;1.63;;;1.50;;
28958;SDS011;16066;0.000;0.000;2022-09-01T12:46:55;2.67;;;1.60;;
28958;SDS011;16066;0.000;0.000;2022-09-01T12:49:24;2.10;;;1.67;;
28958;SDS011;16066;0.000;0.000;2022-09-01T12:52:09;2.17;;;1.50;;
28958;SDS011;16066;0.000;0.000;2022-09-01T12:54:50;2.90;;;1.50;;
28958;SDS011;16066;0.000;0.000;2022-09-01T12:57:26;6.53;;;1.50;;
28958;SDS011;16066;0.000;0.000;2022-09-01T13:02:43;1.60;;;1.50;;
28958;SDS011;16066;0.000;0.000;2022-09-01T13:08:12;1.83;;;1.40;;
28958;SDS011;16066;0.000;0.000;2022-09-01T13:10:42;1.87;;;1.60;;
28958;SDS011;16066;0.000;0.000;2022-09-01T13:13:10;1.80;;;1.60;;
28958;SDS011;16066;0.000;0.000;2022-09-01T13:15:38;5.03;;;1.73;;
28958;SDS011;16066;0.000;0.000;2022-09-01T13:18:06;3.53;;;2.40;;
28958;SDS011;16066;0.000;0.000;2022-09-01T13:20:32;1.90;;;1.27;;
28958;SDS011;16066;0.000;0.000;2022-09-01T13:22:58;2.80;;;1.80;;
28958;SDS011;16066;0.000;0.000;2022-09-01T13:25:24;1.67;;;1.47;;
28958;SDS011;16066;0.000;0.000;2022-09-01T13:27:49;2.10;;;1.43;;
28958;SDS011;16066;0.000;0.000;2022-09-01T13:30:21;2.37;;;1.67;;
28958;SDS011;16066;0.000;0.000;2022-09-01T13:32:48;1.87;;;1.73;;
28958;SDS011;16066;0.000;0.000;2022-09-01T13:35:15;2.30;;;1.60;;
28958;SDS011;16066;0.000;0.000;2022-09-01T13:37:44;1.60;;;1.50;;
28958;SDS011;16066;0.000;0.000;2022-09-01T13:40:10;1.67;;;1.40;;
28958;SDS011;16066;0.000;0.000;2022-09-01T13:42:42;2.17;;;1.70;;
28958;SDS011;16066;0.000;0.000;2022-09-01T13:45:10;3.30;;;2.00;;
28958;SDS011;16066;0.000;0.000;2022-09-01T13:47:40;2.23;;;1.50;;
28958;SDS011;16066;0.000;0.000;2022-09-01T13:50:06;2.50;;;1.47;;
28958;SDS011;16066;0.000;0.000;2022-09-01T13:52:34;1.80;;;1.70;;
28958;SDS011;16066;0.000;0.000;2022-09-01T13:55:00;3.00;;;1.70;;
28958;SDS011;16066;0.000;0.000;2022-09-01T13:57:26;3.83;;;1.37;;
28958;SDS011;16066;0.000;0.000;2022-09-01T13:59:51;1.43;;;1.33;;
28958;SDS011;16066;0.000;0.000;2022-09-01T14:02:17;1.87;;;1.67;;
28958;SDS011;16066;0.000;0.000;2022-09-01T14:04:43;2.77;;;1.70;;
28958;SDS011;16066;0.000;0.000;2022-09-01T14:07:09;1.60;;;1.47;;
28958;SDS011;16066;0.000;0.000;2022-09-01T14:09:34;2.43;;;2.03;;
28958;SDS011;16066;0.000;0.000;2022-09-01T14:12:00;1.93;;;1.50;;
28958;SDS011;16066;0.000;0.000;2022-09-01T14:14:26;1.77;;;1.33;;
28958;SDS011;16066;0.000;0.000;2022-09-01T14:16:51;5.37;;;1.50;;
28958;SDS011;16066;0.000;0.000;2022-09-01T14:19:17;2.17;;;1.40;;
28958;SDS011;16066;0.000;0.000;2022-09-01T14:21:43;1.90;;;1.60;;
28958;SDS011;16066;0.000;0.000;2022-09-01T14:24:08;6.87;;;1.73;;
28958;SDS011;16066;0.000;0.000;2022-09-01T14:26:34;2.47;;;1.53;;
28958;SDS011;16066;0.000;0.000;2022-09-01T14:29:00;5.03;;;2.30;;
28958;SDS011;16066;0.000;0.000;2022-09-01T14:31:26;2.30;;;1.33;;
28958;SDS011;16066;0.000;0.000;2022-09-01T14:33:53;2.23;;;1.50;;
28958;SDS011;16066;0.000;0.000;2022-09-01T14:36:21;2.50;;;1.70;;
28958;SDS011;16066;0.000;0.000;2022-09-01T14:38:48;2.73;;;1.90;;
28958;SDS011;16066;0.000;0.000;2022-09-01T14:41:15;1.63;;;1.53;;
28958;SDS011;16066;0.000;0.000;2022-09-01T14:43:45;1.67;;;1.57;;
28958;SDS011;16066;0.000;0.000;2022-09-01T14:46:11;1.63;;;1.53;;
28958;SDS011;16066;0.000;0.000;2022-09-01T14:48:37;2.00;;;1.60;;
28958;SDS011;16066;0.000;0.000;2022-09-01T14:51:04;1.40;;;1.30;;
28958;SDS011;16066;0.000;0.000;2022-09-01T14:53:31;4.57;;;1.83;;
28958;SDS011;16066;0.000;0.000;2022-09-01T14:55:58;5.70;;;2.07;;
28958;SDS011;16066;0.000;0.000;2022-09-01T14:58:25;2.00;;;1.47;;
28958;SDS011;16066;0.000;0.000;2022-09-01T15:00:52;3.00;;;1.73;;
28958;SDS011;16066;0.000;0.000;2022-09-01T15:03:21;1.80;;;1.70;;
28958;SDS011;16066;0.000;0.000;2022-09-01T15:05:47;1.77;;;1.50;;
28958;SDS011;16066;0.000;0.000;2022-09-01T15:08:14;2.77;;;1.93;;
28958;SDS011;16066;0.000;0.000;2022-09-01T15:10:40;1.80;;;1.63;;
28958;SDS011;16066;0.000;0.000;2022-09-01T15:13:06;2.50;;;1.50;;
28958;SDS011;16066;0.000;0.000;2022-09-01T15:15:32;3.43;;;1.70;;
28958;SDS011;16066;0.000;0.000;2022-09-01T15:17:58;1.70;;;1.60;;
28958;SDS011;16066;0.000;0.000;2022-09-01T15:20:24;1.60;;;1.40;;
28958;SDS011;16066;0.000;0.000;2022-09-01T15:23:09;3.23;;;1.73;;
28958;SDS011;16066;0.000;0.000;2022-09-01T15:25:40;3.63;;;1.70;;
28958;SDS011;16066;0.000;0.000;2022-09-01T15:28:06;2.03;;;1.83;;
28958;SDS011;16066;0.000;0.000;2022-09-01T15:30:32;2.00;;;1.60;;
28958;SDS011;16066;0.000;0.000;2022-09-01T15:32:59;2.13;;;1.80;;
28958;SDS011;16066;0.000;0.000;2022-09-01T15:35:28;1.80;;;1.60;;
28958;SDS011;16066;0.000;0.000;2022-09-01T15:37:54;2.00;;;1.50;;
28958;SDS011;16066;0.000;0.000;2022-09-01T15:40:21;1.80;;;1.40;;
28958;SDS011;16066;0.000;0.000;2022-09-01T15:42:47;1.50;;;1.30;;
28958;SDS011;16066;0.000;0.000;2022-09-01T15:45:15;1.70;;;1.60;;
28958;SDS011;16066;0.000;0.000;2022-09-01T15:47:43;1.80;;;1.70;;
28958;SDS011;16066;0.000;0.000;2022-09-01T15:50:10;2.23;;;1.80;;
28958;SDS011;16066;0.000;0.000;2022-09-01T15:52:46;2.13;;;1.50;;
28958;SDS011;16066;0.000;0.000;2022-09-01T15:55:16;1.67;;;1.53;;
28958;SDS011;16066;0.000;0.000;2022-09-01T15:57:46;2.30;;;1.70;;
28958;SDS011;16066;0.000;0.000;2022-09-01T16:00:12;2.30;;;1.60;;
28958;SDS011;16066;0.000;0.000;2022-09-01T16:02:39;3.43;;;2.10;;
28958;SDS011;16066;0.000;0.000;2022-09-01T16:05:05;1.67;;;1.57;;
28958;SDS011;16066;0.000;0.000;2022-09-01T16:07:31;3.23;;;1.70;;
28958;SDS011;16066;0.000;0.000;2022-09-01T16:09:57;1.90;;;1.40;;